Aviation Digital Data Service (ADDS)

Output produced by METARs form (0748 UTC 25 April 2014)
found at http://aviationweather.gov/adds/metars/
 
KBDL 250531Z 2506/2612 33005KT P6SM SKC 
     FM251700 23004KT P6SM SCT120 
     FM252000 19008KT P6SM BKN110 
     FM260400 14006KT P6SM -RA OVC080 
     FM260900 03005KT 5SM -RA BR OVC025